Watkins Glen, NY

2:37 AM EDT on May 23, 2015 (GMT -0400)
Owego Street | | Change Station
CLOSE
Current Station
Personal Weather Station
Location: Montour Falls, NY
Elevation: 463 ft
Nearby Weather Stations
Active Advisory: Freeze Warning

Elev 463 ft 42.34 °N, 76.84 °W | Updated 38 minutes ago

Clear
Clear
40.8 °F
Feels Like 41 °F
N
0.0
Wind Variable Wind from SE
Gusts 0.0 mph

Today
High -- | Low -- °F
--% Chance of Precip.
Yesterday
High -- | Low -- °F
Precip. -- in
5:39 AM 8:30 PM
Waxing Crescent, 27% visible
Pressure 30.30 in
Visibility 10.0 miles
Clouds Clear
Windchill 41 °F
Dew Point 32 °F
Humidity 69%
Rainfall 0.00 in
Snow Depth Not available.
UV 0 out of 12
Pollen 7.80 out of 12
Air Quality Not available.
Flu Activity Widespread
METAR KELM 230553Z AUTO 32004KT 10SM CLR 03/M02 A3028 RMK AO2 SLP258 T00331022 10133 20017 53008

More Conditions Fewer Conditions

Pressure 30.30 in
Visibility 10.0 miles
Clouds Clear
Windchill 41 °F
Dew Point 32 °F
Humidity 69%
Rainfall 0.00 in
Snow Depth Not available.
UV 0 out of 12
Pollen 7.80 out of 12
Air Quality Not available.
Flu Activity Widespread
METAR KELM 230553Z AUTO 32004KT 10SM CLR 03/M02 A3028 RMK AO2 SLP258 T00331022 10133 20017 53008

More Conditions Fewer Conditions

10-Day Weather Forecast

Almanac

Astronomy

May. 23, 2015 Rise Set
Actual Time
Civil Twilight
Nautical Twilight
Astronomical Twilight
Moon
Length of Visible Light
Length of Day
Tomorrow will be .
, % of the Moon is Illuminated

Today's Extremes

State Highs State Lows

Community

WunderPhotos

Upload Photos

1,823,394 photos uploaded!

WunderBlogs® & News

Nearby

Air Quality

  Air Quality AQ Index Pollutant
Not available.

Snow Depth

Station Depth Elevation

Earthquake Activity

City Distance Mag. Time & Date
Minimum magnitude displayed is 2.5.

Coastal Water Temperatures

Place Temperature

Stations

Nearby Weather Stations

Station Location Temp. Windchill Dew Point Humidity Wind Precip. Elev Updated Type
                   
Freeze Warning
Statement as of 10:58 PM EDT on May 22, 2015

... Freeze warning remains in effect until 9 am EDT Saturday...

* locations... twin tier region... eastern Finger Lakes region...
western Mohawk Valley... western Catskills... and the Pocono
Mountain region.

* Hazards... widespread frost.

* Temperatures... ranging from the 20s in isolated cold spots to
the lower 30s for most of the warned area.

* Timing... frost formation will begin shortly after midnight and
persist through sunrise.

* Impacts... cold air and frost will result in damage to tender
vegetation that is not protected or brought inside.

Precautionary/preparedness actions...

A freeze warning means sub-freezing temperatures are imminent or
highly likely. These conditions will kill crops and other
sensitive vegetation.